createdAt,value
2023-09-29T00:04:17.273Z,7
2023-09-29T00:09:17.237Z,5
2023-09-29T00:15:06.955Z,7
2023-09-29T00:20:17.286Z,6
2023-09-29T00:25:17.219Z,6
2023-09-29T00:30:17.249Z,6
2023-09-29T00:36:06.911Z,6
2023-09-29T00:41:07.041Z,6
2023-09-29T00:46:07.025Z,6
2023-09-29T00:51:17.218Z,7
2023-09-29T00:56:17.218Z,6
2023-09-29T01:01:17.243Z,6
2023-09-29T01:07:06.759Z,6
2023-09-29T01:12:07.007Z,7
2023-09-29T01:17:17.233Z,6
2023-09-29T01:22:17.272Z,7
2023-09-29T01:28:07.040Z,7
2023-09-29T01:33:07.192Z,6
2023-09-29T01:38:17.236Z,6
2023-09-29T01:43:17.300Z,7
2023-09-29T01:49:06.983Z,6
2023-09-29T01:59:06.814Z,6
2023-09-29T02:09:07.082Z,5
2023-09-29T02:14:17.273Z,5
2023-09-29T02:24:17.308Z,8
2023-09-29T02:30:06.755Z,5
2023-09-29T02:35:06.973Z,6
2023-09-29T02:40:07.009Z,6
2023-09-29T02:45:07.050Z,6
2023-09-29T02:50:17.356Z,6
2023-09-29T02:55:17.838Z,6
2023-09-29T03:01:07.019Z,5
2023-09-29T03:06:17.423Z,6
2023-09-29T03:12:06.844Z,6
2023-09-29T03:17:17.025Z,6
2023-09-29T03:22:17.173Z,6
2023-09-29T03:28:06.986Z,5
2023-09-29T03:33:17.115Z,6
2023-09-29T03:38:17.270Z,6
2023-09-29T03:44:07.027Z,6
2023-09-29T03:49:06.983Z,5
2023-09-29T03:54:17.322Z,8
2023-09-29T04:00:07.059Z,6
2023-09-29T04:05:07.167Z,6
2023-09-29T04:10:17.278Z,5
2023-09-29T04:15:17.501Z,5
2023-09-29T04:21:06.814Z,7
2023-09-29T04:26:06.881Z,8
2023-09-29T04:31:17.106Z,6
2023-09-29T04:36:17.128Z,5
2023-09-29T04:42:06.833Z,6
2023-09-29T04:47:06.847Z,5
2023-09-29T04:52:17.080Z,5
2023-09-29T04:57:17.112Z,7
2023-09-29T05:03:07.073Z,5
2023-09-29T05:08:07.484Z,5
2023-09-29T05:13:17.208Z,6
2023-09-29T05:19:06.939Z,6
2023-09-29T05:24:07.061Z,5
2023-09-29T05:29:06.977Z,5
2023-09-29T05:34:07.017Z,5
2023-09-29T05:39:17.290Z,6
2023-09-29T05:44:17.308Z,4
2023-09-29T05:50:15.608Z,4
2023-09-29T05:55:07.063Z,4
2023-09-29T06:00:07.198Z,4
2023-09-29T06:05:17.272Z,5
2023-09-29T06:10:17.316Z,6
2023-09-29T06:16:06.814Z,6
2023-09-29T06:21:07.431Z,4
2023-09-29T06:26:17.311Z,6
2023-09-29T06:32:07.062Z,5
2023-09-29T06:37:17.121Z,5
2023-09-29T06:42:17.302Z,4
2023-09-29T06:48:06.936Z,3
2023-09-29T06:53:07.098Z,3
2023-09-29T06:58:17.136Z,5
2023-09-29T07:03:17.434Z,3
2023-09-29T07:08:17.340Z,4
2023-09-29T07:14:06.858Z,4
2023-09-29T07:19:07.042Z,4
2023-09-29T07:24:07.110Z,6
2023-09-29T07:29:17.431Z,3
2023-09-29T07:35:07.039Z,3
2023-09-29T07:40:07.067Z,4
2023-09-29T07:45:17.197Z,5
2023-09-29T07:50:17.339Z,4
2023-09-29T07:55:17.345Z,5
2023-09-29T08:00:17.363Z,4
2023-09-29T08:05:23.675Z,5
2023-09-29T08:11:07.074Z,4
2023-09-29T08:16:17.172Z,5
2023-09-29T08:21:17.457Z,5
2023-09-29T08:27:06.937Z,5
2023-09-29T08:32:07.092Z,4
2023-09-29T08:37:17.152Z,5
2023-09-29T08:42:17.359Z,4
2023-09-29T08:47:17.348Z,3
2023-09-29T08:53:07.064Z,4
2023-09-29T09:03:17.475Z,4
2023-09-29T09:09:07.050Z,4
2023-09-29T09:14:07.105Z,4
2023-09-29T09:19:17.446Z,4
2023-09-29T09:25:06.900Z,4
2023-09-29T09:30:07.158Z,4
2023-09-29T09:35:17.131Z,4
2023-09-29T09:40:17.375Z,6
2023-09-29T09:45:17.550Z,5
2023-09-29T09:51:07.107Z,4
2023-09-29T09:56:07.093Z,4
2023-09-29T10:01:17.386Z,5
2023-09-29T10:06:17.438Z,6
2023-09-29T10:12:07.176Z,5
2023-09-29T10:17:17.422Z,5
2023-09-29T10:22:17.533Z,7
2023-09-29T10:28:06.906Z,7
2023-09-29T10:33:07.499Z,4
2023-09-29T10:38:07.416Z,5
2023-09-29T10:43:17.203Z,4
2023-09-29T10:49:07.114Z,6
2023-09-29T10:59:17.236Z,6
2023-09-29T11:05:06.925Z,4
2023-09-29T11:10:06.932Z,5
2023-09-29T11:15:17.244Z,6
2023-09-29T11:21:06.988Z,4
2023-09-29T11:26:07.241Z,5
2023-09-29T11:31:17.337Z,5
2023-09-29T11:36:17.272Z,3
2023-09-29T11:41:17.256Z,5
2023-09-29T11:46:17.492Z,5
2023-09-29T11:52:07.197Z,5
2023-09-29T11:57:17.309Z,6
2023-09-29T12:03:07.645Z,8
2023-09-29T12:08:17.472Z,7
2023-09-29T12:13:17.447Z,8
2023-09-29T12:19:07.130Z,12
2023-09-29T12:29:07.206Z,15
2023-09-29T12:34:17.454Z,16
2023-09-29T12:39:17.524Z,17
2023-09-29T12:45:07.291Z,16
2023-09-29T12:50:17.449Z,17
2023-09-29T12:55:17.490Z,16
2023-09-29T13:00:17.662Z,16
2023-09-29T13:06:07.376Z,15
2023-09-29T13:11:17.468Z,13
2023-09-29T13:17:06.968Z,13
2023-09-29T13:22:07.173Z,11
2023-09-29T13:27:07.269Z,13
2023-09-29T13:32:07.446Z,15
2023-09-29T13:37:17.958Z,13
2023-09-29T13:43:07.213Z,14
2023-09-29T13:53:17.478Z,14
2023-09-29T14:04:07.316Z,12
2023-09-29T14:09:18.343Z,12
2023-09-29T14:14:17.515Z,13
2023-09-29T14:19:17.873Z,11
2023-09-29T14:24:27.891Z,13
2023-09-29T14:30:07.286Z,12
2023-09-29T14:35:17.487Z,11
2023-09-29T14:41:07.023Z,12
2023-09-29T14:46:17.972Z,11
2023-09-29T14:52:07.120Z,9
2023-09-29T14:57:07.266Z,8
2023-09-29T15:02:17.510Z,7
2023-09-29T15:07:17.520Z,8
2023-09-29T15:13:07.213Z,8
2023-09-29T15:18:17.310Z,9
2023-09-29T15:23:17.498Z,8
2023-09-29T15:28:17.560Z,8
2023-09-29T15:34:07.258Z,9
2023-09-29T15:39:07.339Z,6
2023-09-29T15:44:07.578Z,7
2023-09-29T15:49:17.542Z,8
2023-09-29T15:54:17.544Z,7
2023-09-29T16:00:07.304Z,8
2023-09-29T16:05:17.279Z,9
2023-09-29T16:10:19.006Z,9
2023-09-29T16:15:17.360Z,7
2023-09-29T16:20:17.372Z,8
2023-09-29T16:25:17.702Z,13
2023-09-29T16:31:07.436Z,4
2023-09-29T16:36:20.192Z,4
2023-09-29T16:41:17.576Z,4
2023-09-29T16:46:17.748Z,3
2023-09-29T16:52:07.273Z,5
2023-09-29T16:57:07.157Z,3
2023-09-29T17:02:17.329Z,3
2023-09-29T17:08:07.213Z,4
2023-09-29T17:13:17.349Z,4
2023-09-29T17:19:07.035Z,4
2023-09-29T17:24:07.102Z,6
2023-09-29T17:29:17.310Z,9
2023-09-29T17:34:17.335Z,7
2023-09-29T17:39:17.386Z,7
2023-09-29T17:45:08.640Z,6
2023-09-29T17:50:17.431Z,8
2023-09-29T17:56:07.269Z,9
2023-09-29T18:01:07.265Z,7
2023-09-29T18:06:07.286Z,8
2023-09-29T18:11:17.600Z,6
2023-09-29T18:16:17.551Z,7
2023-09-29T18:21:17.588Z,6
2023-09-29T18:26:25.666Z,10
2023-09-29T18:32:07.271Z,7
2023-09-29T18:37:17.512Z,9
2023-09-29T18:42:17.658Z,5
2023-09-29T18:48:07.410Z,7
2023-09-29T18:53:17.341Z,8
2023-09-29T18:58:17.525Z,7
2023-09-29T19:03:17.631Z,10
2023-09-29T19:08:17.614Z,9
2023-09-29T19:14:08.480Z,7
2023-09-29T19:19:17.544Z,7
2023-09-29T19:24:17.637Z,7
2023-09-29T19:35:07.341Z,9
2023-09-29T19:40:17.536Z,9
2023-09-29T19:45:17.672Z,9
2023-09-29T19:51:07.300Z,10
2023-09-29T19:56:07.285Z,7
2023-09-29T20:01:17.547Z,8
2023-09-29T20:06:17.717Z,8
2023-09-29T20:12:07.351Z,7
2023-09-29T20:17:17.675Z,8
2023-09-29T20:23:07.302Z,8
2023-09-29T20:34:07.280Z,11
2023-09-29T20:39:17.726Z,11
2023-09-29T20:45:07.348Z,8
2023-09-29T20:50:17.776Z,11
2023-09-29T20:55:17.585Z,8
2023-09-29T21:01:07.335Z,10
2023-09-29T21:06:07.412Z,9
2023-09-29T21:11:17.564Z,10
2023-09-29T21:17:07.311Z,7
2023-09-29T21:22:17.378Z,12
2023-09-29T21:27:17.599Z,10
2023-09-29T21:33:07.378Z,10
2023-09-29T21:38:07.320Z,9
2023-09-29T21:43:17.602Z,10
2023-09-29T21:49:07.335Z,9
2023-09-29T21:54:17.424Z,14
2023-09-29T21:59:26.611Z,10
2023-09-29T22:05:07.283Z,10
2023-09-29T22:10:07.347Z,9
2023-09-29T22:15:17.626Z,9
2023-09-29T22:20:17.609Z,9
2023-09-29T22:26:07.324Z,11
2023-09-29T22:31:17.597Z,8
2023-09-29T22:36:17.654Z,9
2023-09-29T22:41:17.705Z,9
2023-09-29T22:47:07.510Z,11
2023-09-29T22:52:17.566Z,9
2023-09-29T22:57:17.629Z,9
2023-09-29T23:03:07.246Z,9
2023-09-29T23:08:07.147Z,9
2023-09-29T23:13:17.359Z,9
2023-09-29T23:18:17.421Z,9
2023-09-29T23:29:17.416Z,8
2023-09-29T23:35:07.158Z,9
2023-09-29T23:40:17.487Z,10
2023-09-29T23:46:07.167Z,10
2023-09-29T23:51:07.213Z,9
2023-09-29T23:56:17.384Z,10
